Time;durP1;ratioP1;P1;durP2;ratioP2;P2;SDS_P1;SDS_P2;PMS_P1;PMS_P2;Temp;Humidity;BMP_temperature;BMP_pressure;BME280_temperature;BME280_humidity;BME280_pressure;Samples;Min_cycle;Max_cycle;Signal;HPM_P1;HPM_P2
2022/04/15 00:02:03;;;;;;;2.53;2.33;;;;;;;;;;5094198;28;20280;-81
2022/04/15 00:04:32;;;;;;;3.93;2.43;;;;;;;;;;5093788;28;20204;-81
2022/04/15 00:07:00;;;;;;;2.67;2.47;;;;;;;;;;5094281;28;20200;-81
2022/04/15 00:09:28;;;;;;;2.63;2.43;;;;;;;;;;5093476;28;20255;-81
2022/04/15 00:11:56;;;;;;;3.30;2.60;;;;;;;;;;5093811;28;20262;-81
2022/04/15 00:14:24;;;;;;;3.17;2.97;;;;;;;;;;5094033;28;20664;-82
2022/04/15 00:16:51;;;;;;;2.60;2.40;;;;;;;;;;5093738;28;20291;-82
2022/04/15 00:19:19;;;;;;;4.03;2.50;;;;;;;;;;5093134;28;20635;-81
2022/04/15 00:21:46;;;;;;;3.23;2.60;;;;;;;;;;5093605;28;20200;-81
2022/04/15 00:24:15;;;;;;;3.23;2.97;;;;;;;;;;5093430;28;20249;-81
2022/04/15 00:26:42;;;;;;;3.27;2.63;;;;;;;;;;5093697;28;20207;-81
2022/04/15 00:29:09;;;;;;;3.37;2.63;;;;;;;;;;5093109;28;20735;-81
2022/04/15 00:31:37;;;;;;;3.60;2.60;;;;;;;;;;5093332;28;20287;-81
2022/04/15 00:34:04;;;;;;;4.10;2.37;;;;;;;;;;5093371;28;20733;-81
2022/04/15 00:36:31;;;;;;;3.17;2.30;;;;;;;;;;5092857;28;20267;-81
2022/04/15 00:38:58;;;;;;;3.23;2.97;;;;;;;;;;5093301;28;20188;-81
2022/04/15 00:41:27;;;;;;;4.00;2.73;;;;;;;;;;5093183;28;20247;-81
2022/04/15 00:43:55;;;;;;;2.73;2.47;;;;;;;;;;5093108;28;20228;-82
2022/04/15 00:46:23;;;;;;;3.23;2.70;;;;;;;;;;5092990;28;20196;-81
2022/04/15 00:48:50;;;;;;;3.53;2.70;;;;;;;;;;5093013;28;20196;-81
2022/04/15 00:51:17;;;;;;;2.93;2.57;;;;;;;;;;5093029;28;20211;-81
2022/04/15 00:53:46;;;;;;;3.23;2.93;;;;;;;;;;5092936;28;20192;-81
2022/04/15 00:56:14;;;;;;;3.47;2.80;;;;;;;;;;5092680;28;20291;-81
2022/04/15 00:58:43;;;;;;;2.73;2.53;;;;;;;;;;5093169;28;20455;-81
2022/04/15 01:01:10;;;;;;;5.70;3.00;;;;;;;;;;5092785;28;20669;-81
2022/04/15 01:03:38;;;;;;;5.87;2.70;;;;;;;;;;5092782;28;20686;-81
2022/04/15 01:06:07;;;;;;;2.90;2.60;;;;;;;;;;5092680;28;20647;-81
2022/04/15 01:08:38;;;;;;;4.30;3.43;;;;;;;;;;5092857;28;20741;-81
2022/04/15 01:11:06;;;;;;;3.97;2.90;;;;;;;;;;5092561;28;20212;-81
2022/04/15 01:13:35;;;;;;;3.33;3.03;;;;;;;;;;5092798;28;20287;-81
2022/04/15 01:16:05;;;;;;;3.30;2.77;;;;;;;;;;5092169;28;20195;-81
2022/04/15 01:18:32;;;;;;;3.00;2.53;;;;;;;;;;5092657;28;20295;-81
2022/04/15 01:21:00;;;;;;;2.70;2.50;;;;;;;;;;5092354;28;20287;-81
2022/04/15 01:23:29;;;;;;;3.67;2.67;;;;;;;;;;5092602;28;20242;-81
2022/04/15 01:25:56;;;;;;;3.30;3.00;;;;;;;;;;5092014;28;20200;-81
2022/04/15 01:28:24;;;;;;;2.97;2.70;;;;;;;;;;5092448;28;20243;-81
2022/04/15 01:30:51;;;;;;;3.10;2.83;;;;;;;;;;5092150;28;20220;-81
2022/04/15 01:33:18;;;;;;;4.23;3.70;;;;;;;;;;5092358;28;20575;-81
2022/04/15 01:35:46;;;;;;;3.97;2.87;;;;;;;;;;5092270;28;20218;-81
2022/04/15 01:38:14;;;;;;;3.90;2.60;;;;;;;;;;5092498;28;20228;-81
2022/04/15 01:40:44;;;;;;;2.57;2.37;;;;;;;;;;5092084;28;20730;-81
2022/04/15 01:43:12;;;;;;;2.60;2.40;;;;;;;;;;5092613;28;20192;-81
2022/04/15 01:45:39;;;;;;;2.57;2.37;;;;;;;;;;5091790;28;20696;-81
2022/04/15 01:48:06;;;;;;;5.07;3.37;;;;;;;;;;5092429;28;20203;-81
2022/04/15 01:50:34;;;;;;;2.93;2.60;;;;;;;;;;5091881;28;20220;-81
2022/04/15 01:53:01;;;;;;;3.03;2.83;;;;;;;;;;5092128;28;20239;-82
2022/04/15 01:55:28;;;;;;;2.73;2.47;;;;;;;;;;5091680;28;20199;-81
2022/04/15 01:57:57;;;;;;;2.73;2.53;;;;;;;;;;5092077;28;20291;-81
2022/04/15 02:00:25;;;;;;;3.23;2.93;;;;;;;;;;5091778;28;20682;-81
2022/04/15 02:02:52;;;;;;;5.23;2.87;;;;;;;;;;5091974;28;20239;-81
2022/04/15 02:05:19;;;;;;;3.03;2.80;;;;;;;;;;5092112;28;20251;-81
2022/04/15 02:07:47;;;;;;;3.77;2.70;;;;;;;;;;5092038;28;20200;-81
2022/04/15 02:10:14;;;;;;;2.93;2.67;;;;;;;;;;5091841;28;20266;-81
2022/04/15 02:12:41;;;;;;;4.83;2.77;;;;;;;;;;5091752;28;20198;-82
2022/04/15 02:15:11;;;;;;;3.50;2.93;;;;;;;;;;5091648;28;20646;-81
2022/04/15 02:17:38;;;;;;;3.70;3.30;;;;;;;;;;5091804;28;20287;-81
2022/04/15 02:20:06;;;;;;;3.17;2.73;;;;;;;;;;5091491;28;20188;-81
2022/04/15 02:22:33;;;;;;;4.03;2.93;;;;;;;;;;5091797;28;20287;-81
2022/04/15 02:25:01;;;;;;;4.40;3.43;;;;;;;;;;5091587;28;20196;-81
2022/04/15 02:27:28;;;;;;;4.13;2.87;;;;;;;;;;5089821;28;20683;-82
2022/04/15 02:29:55;;;;;;;3.23;2.93;;;;;;;;;;5091306;28;20696;-83
2022/04/15 02:32:25;;;;;;;3.20;2.90;;;;;;;;;;5091708;28;20203;-83
2022/04/15 02:34:53;;;;;;;3.43;3.13;;;;;;;;;;5092062;28;20196;-83
2022/04/15 02:37:20;;;;;;;5.57;3.13;;;;;;;;;;5091000;28;20228;-82
2022/04/15 02:39:48;;;;;;;3.70;3.37;;;;;;;;;;5090984;28;20196;-83
2022/04/15 02:42:15;;;;;;;3.17;2.97;;;;;;;;;;5091370;28;20202;-83
2022/04/15 02:44:43;;;;;;;4.40;2.97;;;;;;;;;;5094755;28;20211;-82
2022/04/15 02:47:13;;;;;;;4.67;3.13;;;;;;;;;;5095464;28;20579;-82
2022/04/15 02:49:42;;;;;;;4.23;2.90;;;;;;;;;;5094629;28;20195;-82
2022/04/15 02:52:09;;;;;;;4.67;2.93;;;;;;;;;;5095240;28;20636;-82
2022/04/15 02:54:36;;;;;;;4.23;3.30;;;;;;;;;;5094843;28;20253;-82
2022/04/15 02:57:04;;;;;;;3.67;3.37;;;;;;;;;;5095151;28;20668;-81
2022/04/15 02:59:31;;;;;;;3.27;2.97;;;;;;;;;;5094828;28;20197;-81
2022/04/15 03:01:58;;;;;;;7.03;3.50;;;;;;;;;;5094828;28;20227;-82
2022/04/15 03:04:25;;;;;;;3.90;3.50;;;;;;;;;;5094590;28;20192;-81
2022/04/15 03:06:54;;;;;;;5.97;3.30;;;;;;;;;;5094598;28;20202;-82
2022/04/15 03:09:22;;;;;;;3.33;2.73;;;;;;;;;;5095132;28;20192;-81
2022/04/15 03:11:49;;;;;;;3.73;3.00;;;;;;;;;;5094900;28;20220;-82
2022/04/15 03:14:17;;;;;;;6.63;3.53;;;;;;;;;;5094937;28;20672;-81
2022/04/15 03:16:45;;;;;;;4.07;3.67;;;;;;;;;;5094192;28;20211;-81
2022/04/15 03:19:12;;;;;;;5.10;3.97;;;;;;;;;;5094530;28;20209;-82
2022/04/15 03:21:39;;;;;;;4.43;3.83;;;;;;;;;;5094541;28;20586;-81
2022/04/15 03:24:08;;;;;;;4.70;3.70;;;;;;;;;;5094588;28;20234;-81
2022/04/15 03:26:36;;;;;;;4.93;3.83;;;;;;;;;;5094733;28;20586;-81
2022/04/15 03:29:03;;;;;;;4.47;3.53;;;;;;;;;;5094554;28;20286;-81
2022/04/15 03:31:30;;;;;;;3.77;3.20;;;;;;;;;;5094410;28;20216;-81
2022/04/15 03:33:57;;;;;;;5.47;3.20;;;;;;;;;;5094355;28;20227;-81
2022/04/15 03:36:25;;;;;;;3.80;3.40;;;;;;;;;;5094279;28;20724;-81
2022/04/15 03:38:53;;;;;;;3.27;2.87;;;;;;;;;;5094314;28;20669;-81
2022/04/15 03:41:22;;;;;;;4.30;3.13;;;;;;;;;;5094286;28;20192;-81
2022/04/15 03:43:50;;;;;;;3.37;2.80;;;;;;;;;;5094307;28;20193;-81
2022/04/15 03:46:17;;;;;;;3.37;2.90;;;;;;;;;;5094084;28;20661;-82
2022/04/15 03:48:44;;;;;;;2.93;2.73;;;;;;;;;;5094526;28;20200;-81
2022/04/15 03:51:12;;;;;;;3.30;2.90;;;;;;;;;;5093798;28;20273;-82
2022/04/15 03:53:40;;;;;;;2.63;2.43;;;;;;;;;;5094333;28;20281;-82
2022/04/15 03:56:07;;;;;;;2.97;2.70;;;;;;;;;;5092767;28;20656;-81
2022/04/15 03:58:36;;;;;;;2.77;2.50;;;;;;;;;;5091903;28;20200;-82
2022/04/15 04:01:04;;;;;;;3.37;2.97;;;;;;;;;;5093743;28;20192;-81
2022/04/15 04:03:31;;;;;;;3.47;2.77;;;;;;;;;;5094248;28;20188;-82
2022/04/15 04:05:58;;;;;;;6.57;3.17;;;;;;;;;;5094206;28;20228;-82
2022/04/15 04:08:26;;;;;;;5.70;3.10;;;;;;;;;;5093767;28;20209;-82
2022/04/15 04:10:53;;;;;;;4.30;3.60;;;;;;;;;;5093911;28;20232;-82
2022/04/15 04:13:20;;;;;;;3.57;2.93;;;;;;;;;;5093828;28;20203;-82
2022/04/15 04:15:49;;;;;;;3.83;3.33;;;;;;;;;;5093632;28;20318;-82
2022/04/15 04:18:20;;;;;;;5.13;3.67;;;;;;;;;;5093494;28;20250;-82
2022/04/15 04:20:47;;;;;;;3.80;3.50;;;;;;;;;;5093457;28;20185;-82
2022/04/15 04:23:15;;;;;;;8.43;7.73;;;;;;;;;;5093493;28;20192;-81
2022/04/15 04:25:42;;;;;;;12.43;7.30;;;;;;;;;;5093395;28;20294;-82
2022/04/15 04:28:11;;;;;;;6.00;4.70;;;;;;;;;;5093565;28;20275;-81
2022/04/15 04:30:38;;;;;;;3.63;3.33;;;;;;;;;;5092935;28;20228;-81
2022/04/15 04:33:07;;;;;;;3.60;3.30;;;;;;;;;;5092900;28;20665;-82
2022/04/15 04:35:37;;;;;;;8.77;7.10;;;;;;;;;;5093558;28;20230;-82
2022/04/15 04:38:05;;;;;;;25.33;15.33;;;;;;;;;;5093079;28;20613;-82
2022/04/15 04:40:33;;;;;;;16.37;11.03;;;;;;;;;;5092157;28;20196;-82
2022/04/15 04:43:00;;;;;;;26.33;21.40;;;;;;;;;;5093331;28;20200;-81
2022/04/15 04:45:27;;;;;;;17.53;15.40;;;;;;;;;;5093058;28;20192;-81
2022/04/15 04:47:55;;;;;;;21.70;15.80;;;;;;;;;;5093105;28;20279;-81
2022/04/15 04:50:24;;;;;;;13.80;9.20;;;;;;;;;;5092872;28;20200;-81
2022/04/15 04:52:51;;;;;;;13.63;10.37;;;;;;;;;;5093103;28;20231;-81
2022/04/15 04:55:19;;;;;;;14.10;12.73;;;;;;;;;;5092864;28;20199;-81
2022/04/15 04:57:46;;;;;;;14.73;13.17;;;;;;;;;;5093214;28;20668;-82
2022/04/15 05:00:16;;;;;;;15.57;14.07;;;;;;;;;;5093082;28;20274;-82
2022/04/15 05:02:43;;;;;;;19.10;17.23;;;;;;;;;;5092925;28;20285;-82
2022/04/15 05:05:11;;;;;;;24.80;18.23;;;;;;;;;;5092990;28;20299;-81
2022/04/15 05:07:40;;;;;;;23.53;18.30;;;;;;;;;;5092511;28;20203;-81
2022/04/15 05:10:08;;;;;;;16.37;13.03;;;;;;;;;;5092376;28;20196;-82
2022/04/15 05:12:35;;;;;;;11.90;8.87;;;;;;;;;;5092639;28;20256;-81
2022/04/15 05:15:02;;;;;;;8.20;6.00;;;;;;;;;;5092552;28;20195;-82
2022/04/15 05:17:30;;;;;;;8.80;4.37;;;;;;;;;;5092669;28;20291;-82
2022/04/15 05:19:57;;;;;;;7.73;4.63;;;;;;;;;;5092388;28;20291;-82
2022/04/15 05:22:24;;;;;;;5.20;4.67;;;;;;;;;;5092613;28;20202;-82
2022/04/15 05:24:53;;;;;;;4.43;4.13;;;;;;;;;;5092472;28;20692;-83
2022/04/15 05:27:21;;;;;;;4.23;3.83;;;;;;;;;;5092592;28;20196;-83
2022/04/15 05:29:48;;;;;;;6.17;4.50;;;;;;;;;;5092083;28;20192;-82
2022/04/15 05:32:15;;;;;;;11.23;9.40;;;;;;;;;;5092375;28;20228;-81
2022/04/15 05:34:44;;;;;;;8.97;6.03;;;;;;;;;;5092548;28;20200;-82
2022/04/15 05:37:12;;;;;;;6.47;4.50;;;;;;;;;;5092286;28;20679;-81
2022/04/15 05:39:39;;;;;;;5.20;4.03;;;;;;;;;;5092332;28;20251;-82
2022/04/15 05:42:08;;;;;;;6.93;4.63;;;;;;;;;;5092267;28;20236;-82
2022/04/15 05:44:36;;;;;;;7.07;5.80;;;;;;;;;;5092368;28;20200;-82
2022/04/15 05:47:04;;;;;;;7.10;5.50;;;;;;;;;;5092236;28;20207;-82
2022/04/15 05:49:34;;;;;;;9.07;6.37;;;;;;;;;;5092115;28;20283;-82
2022/04/15 05:52:01;;;;;;;14.43;8.80;;;;;;;;;;5092066;28;20227;-82
2022/04/15 05:54:28;;;;;;;9.00;6.33;;;;;;;;;;5091960;28;20287;-82
2022/04/15 05:56:56;;;;;;;8.10;4.57;;;;;;;;;;5092141;28;20202;-81
2022/04/15 05:59:24;;;;;;;6.93;4.77;;;;;;;;;;5092145;28;20772;-81
2022/04/15 06:01:52;;;;;;;7.00;4.20;;;;;;;;;;5092017;28;20196;-82
2022/04/15 06:04:19;;;;;;;6.67;4.43;;;;;;;;;;5092226;28;20226;-82
2022/04/15 06:06:47;;;;;;;6.67;4.40;;;;;;;;;;5092093;28;20196;-82
2022/04/15 06:09:14;;;;;;;7.40;4.07;;;;;;;;;;5091967;28;20250;-82
2022/04/15 06:11:42;;;;;;;8.30;5.73;;;;;;;;;;5091995;28;20262;-82
2022/04/15 06:14:09;;;;;;;14.63;11.17;;;;;;;;;;5091952;28;20196;-82
2022/04/15 06:16:42;;;;;;;8.57;6.40;;;;;;;;;;5092267;28;20200;-82
2022/04/15 06:19:09;;;;;;;12.10;10.73;;;;;;;;;;5094286;28;20239;-82
2022/04/15 06:21:36;;;;;;;6.67;4.80;;;;;;;;;;5096188;28;20245;-82
2022/04/15 06:24:04;;;;;;;6.50;3.93;;;;;;;;;;5096072;28;20230;-82
2022/04/15 06:26:31;;;;;;;5.20;3.73;;;;;;;;;;5095986;28;20207;-81
2022/04/15 06:28:59;;;;;;;5.67;3.30;;;;;;;;;;5095778;28;20282;-82
2022/04/15 06:31:26;;;;;;;4.57;2.87;;;;;;;;;;5096091;28;20224;-81
2022/04/15 06:33:56;;;;;;;6.83;2.67;;;;;;;;;;5095858;28;20666;-82
2022/04/15 06:36:23;;;;;;;5.23;3.10;;;;;;;;;;5095377;28;20675;-82
2022/04/15 06:38:51;;;;;;;3.93;2.90;;;;;;;;;;5095892;28;20223;-82
2022/04/15 06:41:18;;;;;;;7.80;2.70;;;;;;;;;;5095882;28;20196;-82
2022/04/15 06:43:45;;;;;;;3.87;2.10;;;;;;;;;;5095577;28;20238;-82
2022/04/15 06:46:12;;;;;;;7.53;3.13;;;;;;;;;;5095311;28;20288;-82
2022/04/15 06:48:40;;;;;;;7.77;2.73;;;;;;;;;;5095776;28;20197;-82
2022/04/15 06:51:08;;;;;;;7.50;3.00;;;;;;;;;;5095546;28;20224;-82
2022/04/15 06:53:36;;;;;;;3.87;2.67;;;;;;;;;;5095355;28;20199;-82
2022/04/15 06:56:03;;;;;;;4.20;2.43;;;;;;;;;;5095503;28;20444;-83
2022/04/15 06:58:30;;;;;;;5.80;2.70;;;;;;;;;;5095896;28;20275;-82
2022/04/15 07:00:57;;;;;;;7.13;2.50;;;;;;;;;;5094936;28;20201;-83
2022/04/15 07:03:25;;;;;;;2.90;2.37;;;;;;;;;;5095242;28;20196;-83
2022/04/15 07:05:52;;;;;;;7.03;3.10;;;;;;;;;;5095100;28;20196;-83
2022/04/15 07:08:21;;;;;;;5.20;3.20;;;;;;;;;;5095085;28;20568;-83
2022/04/15 07:10:48;;;;;;;3.60;3.30;;;;;;;;;;5094923;28;20703;-83
2022/04/15 07:13:15;;;;;;;4.37;3.43;;;;;;;;;;5094995;28;20739;-83
2022/04/15 07:15:43;;;;;;;11.73;5.30;;;;;;;;;;5094903;28;20208;-83
2022/04/15 07:18:10;;;;;;;5.00;4.27;;;;;;;;;;5094957;28;20193;-81
2022/04/15 07:20:37;;;;;;;34.43;22.50;;;;;;;;;;5094589;28;20200;-83
2022/04/15 07:23:05;;;;;;;18.23;13.60;;;;;;;;;;5094828;28;20279;-82
2022/04/15 07:25:34;;;;;;;22.23;19.60;;;;;;;;;;5094979;28;20255;-83
2022/04/15 07:28:02;;;;;;;20.90;15.60;;;;;;;;;;5094927;28;20228;-83
2022/04/15 07:30:29;;;;;;;12.23;8.93;;;;;;;;;;5094360;28;20210;-83
2022/04/15 07:32:57;;;;;;;9.90;7.93;;;;;;;;;;5094580;28;20313;-83
2022/04/15 07:35:24;;;;;;;12.03;9.63;;;;;;;;;;5094302;28;20296;-83
2022/04/15 07:37:51;;;;;;;11.13;7.30;;;;;;;;;;5094429;28;20233;-83
2022/04/15 07:40:18;;;;;;;9.53;8.53;;;;;;;;;;5094711;28;20196;-83
2022/04/15 07:42:47;;;;;;;8.40;6.10;;;;;;;;;;5095405;28;20622;-83
2022/04/15 07:45:14;;;;;;;8.57;5.53;;;;;;;;;;5094767;28;20230;-83
2022/04/15 07:47:42;;;;;;;12.80;9.73;;;;;;;;;;5094482;28;20197;-83
2022/04/15 07:50:10;;;;;;;5.63;5.13;;;;;;;;;;5094484;28;20199;-83
2022/04/15 07:52:37;;;;;;;11.47;7.37;;;;;;;;;;5094569;28;20222;-83
2022/04/15 07:55:05;;;;;;;18.53;16.57;;;;;;;;;;5093856;28;20214;-83
2022/04/15 07:57:34;;;;;;;6.47;5.77;;;;;;;;;;5094238;28;20722;-83
2022/04/15 08:00:03;;;;;;;12.00;6.80;;;;;;;;;;5093979;28;20205;-83
2022/04/15 08:02:31;;;;;;;8.27;6.67;;;;;;;;;;5094000;28;20665;-83
2022/04/15 08:04:58;;;;;;;13.03;4.80;;;;;;;;;;5093921;28;20198;-83
2022/04/15 08:07:25;;;;;;;7.37;6.60;;;;;;;;;;5094310;28;20201;-83
2022/04/15 08:09:52;;;;;;;18.57;13.27;;;;;;;;;;5094121;28;20193;-83
2022/04/15 08:12:20;;;;;;;8.30;6.10;;;;;;;;;;5093765;28;20679;-83
2022/04/15 08:14:47;;;;;;;5.53;4.27;;;;;;;;;;5093659;28;20298;-83
2022/04/15 08:17:16;;;;;;;4.13;3.73;;;;;;;;;;5094133;28;20221;-83
2022/04/15 08:19:43;;;;;;;4.17;3.40;;;;;;;;;;5093655;28;20203;-83
2022/04/15 08:22:11;;;;;;;4.47;3.37;;;;;;;;;;5093469;28;20191;-83
2022/04/15 08:24:42;;;;;;;4.03;3.67;;;;;;;;;;5093499;28;20200;-83
2022/04/15 08:27:10;;;;;;;3.57;3.27;;;;;;;;;;5094027;28;20260;-84
2022/04/15 08:29:39;;;;;;;3.40;3.10;;;;;;;;;;5093513;28;20203;-83
2022/04/15 08:32:08;;;;;;;3.50;2.93;;;;;;;;;;5093508;28;20219;-83
2022/04/15 08:34:36;;;;;;;4.97;4.47;;;;;;;;;;5093335;28;20211;-83
2022/04/15 08:37:04;;;;;;;6.87;4.80;;;;;;;;;;5093035;28;20761;-83
2022/04/15 08:39:32;;;;;;;7.23;5.20;;;;;;;;;;5093309;28;20204;-83
2022/04/15 08:42:00;;;;;;;5.57;3.80;;;;;;;;;;5092829;28;20245;-83
2022/04/15 08:44:27;;;;;;;4.77;3.90;;;;;;;;;;5093153;28;20195;-83
2022/04/15 08:46:55;;;;;;;4.67;4.13;;;;;;;;;;5092976;28;20200;-84
2022/04/15 08:49:23;;;;;;;3.97;3.57;;;;;;;;;;5093051;28;20286;-83
2022/04/15 08:51:52;;;;;;;7.97;3.53;;;;;;;;;;5093401;28;20227;-83
2022/04/15 08:54:19;;;;;;;4.77;3.27;;;;;;;;;;5093416;28;20274;-83
2022/04/15 08:56:47;;;;;;;3.53;2.80;;;;;;;;;;5093144;28;20192;-82
2022/04/15 08:59:15;;;;;;;4.17;3.43;;;;;;;;;;5092773;28;20660;-83
2022/04/15 09:01:42;;;;;;;3.37;3.07;;;;;;;;;;5093449;28;20196;-83
2022/04/15 09:04:10;;;;;;;5.10;4.27;;;;;;;;;;5092910;28;20668;-82
2022/04/15 09:06:38;;;;;;;10.57;3.97;;;;;;;;;;5092891;28;20660;-82
2022/04/15 09:09:11;;;;;;;5.80;3.47;;;;;;;;;;5092813;28;20207;-82
2022/04/15 09:11:40;;;;;;;5.97;3.80;;;;;;;;;;5092764;28;20240;-83
2022/04/15 09:14:10;;;;;;;4.23;3.73;;;;;;;;;;5092871;28;20203;-82
2022/04/15 09:16:39;;;;;;;6.17;3.87;;;;;;;;;;5093107;28;20573;-83
2022/04/15 09:19:07;;;;;;;5.53;3.67;;;;;;;;;;5092561;28;20200;-83
2022/04/15 09:21:35;;;;;;;4.83;4.17;;;;;;;;;;5092938;28;20228;-83
2022/04/15 09:24:02;;;;;;;4.37;3.40;;;;;;;;;;5092481;28;20196;-83
2022/04/15 09:26:31;;;;;;;5.17;3.67;;;;;;;;;;5092745;28;20228;-83
2022/04/15 09:28:58;;;;;;;7.97;4.10;;;;;;;;;;5092089;28;20232;-83
2022/04/15 09:31:26;;;;;;;13.97;10.00;;;;;;;;;;5092480;28;20200;-83
2022/04/15 09:33:55;;;;;;;6.40;5.80;;;;;;;;;;5092284;28;20231;-83
2022/04/15 09:36:26;;;;;;;9.30;6.10;;;;;;;;;;5092553;28;20656;-83
2022/04/15 09:39:02;;;;;;;9.97;4.87;;;;;;;;;;5092135;28;20197;-83
2022/04/15 09:41:31;;;;;;;34.37;24.03;;;;;;;;;;5092732;28;20267;-83
2022/04/15 09:44:00;;;;;;;24.43;18.47;;;;;;;;;;5092442;28;20626;-82
2022/04/15 09:46:30;;;;;;;15.30;10.23;;;;;;;;;;5092555;28;20651;-83
2022/04/15 09:49:08;;;;;;;10.83;8.97;;;;;;;;;;5092408;28;20249;-83
2022/04/15 09:51:38;;;;;;;8.03;7.20;;;;;;;;;;5092240;28;20279;-83
2022/04/15 09:54:07;;;;;;;6.83;3.97;;;;;;;;;;5091622;28;20228;-83
2022/04/15 09:56:37;;;;;;;4.33;3.93;;;;;;;;;;5092152;28;20196;-83
2022/04/15 09:59:08;;;;;;;8.93;7.00;;;;;;;;;;5092259;28;20630;-83
2022/04/15 10:01:40;;;;;;;8.33;5.47;;;;;;;;;;5092434;28;20185;-83
2022/04/15 10:04:10;;;;;;;9.17;5.27;;;;;;;;;;5091976;28;20237;-83
2022/04/15 10:06:39;;;;;;;7.80;5.77;;;;;;;;;;5092356;28;20200;-83
2022/04/15 10:09:06;;;;;;;5.60;5.03;;;;;;;;;;5091769;28;20196;-83
2022/04/15 10:11:37;;;;;;;6.03;4.17;;;;;;;;;;5091934;28;20192;-83
2022/04/15 10:14:04;;;;;;;4.20;3.80;;;;;;;;;;5091510;28;20240;-83
2022/04/15 10:16:33;;;;;;;8.50;4.60;;;;;;;;;;5091981;28;20257;-82
2022/04/15 10:19:03;;;;;;;9.47;5.47;;;;;;;;;;5091957;28;20196;-83
2022/04/15 10:21:33;;;;;;;5.00;4.47;;;;;;;;;;5091895;28;20202;-83
2022/04/15 10:24:02;;;;;;;5.50;4.33;;;;;;;;;;5091717;28;20204;-83
2022/04/15 10:26:35;;;;;;;19.87;11.80;;;;;;;;;;5091633;28;20286;-83
2022/04/15 10:29:04;;;;;;;62.27;30.17;;;;;;;;;;5091645;28;20184;-84
2022/04/15 10:31:38;;;;;;;11.73;6.93;;;;;;;;;;5092134;28;20196;-84
2022/04/15 10:34:10;;;;;;;3.80;3.50;;;;;;;;;;5091292;28;20267;-84
2022/04/15 10:36:37;;;;;;;21.97;13.27;;;;;;;;;;5091899;28;20331;-84
2022/04/15 10:39:19;;;;;;;26.07;13.50;;;;;;;;;;5091620;28;20185;-84
2022/04/15 10:42:01;;;;;;;95.80;56.10;;;;;;;;;;5091438;28;20680;-84
2022/04/15 10:44:37;;;;;;;38.10;23.57;;;;;;;;;;5091510;28;20608;-84
2022/04/15 10:47:13;;;;;;;11.63;7.57;;;;;;;;;;5091736;28;20275;-84
2022/04/15 10:49:42;;;;;;;9.50;5.80;;;;;;;;;;5091440;28;20192;-84
2022/04/15 10:52:21;;;;;;;4.07;3.67;;;;;;;;;;5091399;28;20283;-84
2022/04/15 10:54:52;;;;;;;5.83;5.27;;;;;;;;;;5091337;28;20184;-84
2022/04/15 10:57:22;;;;;;;4.83;4.43;;;;;;;;;;5091796;28;20651;-84
2022/04/15 11:02:44;;;;;;;9.57;4.87;;;;;;;;;;5091799;28;20187;-84
2022/04/15 11:05:13;;;;;;;5.63;5.10;;;;;;;;;;5093896;28;20192;-84
2022/04/15 11:07:47;;;;;;;9.87;6.40;;;;;;;;;;5095533;28;20616;-84
2022/04/15 11:10:47;;;;;;;3.93;3.43;;;;;;;;;;5095017;28;20191;-84
2022/04/15 11:13:53;;;;;;;5.77;4.20;;;;;;;;;;5095015;28;20238;-84
2022/04/15 11:16:22;;;;;;;7.03;4.30;;;;;;;;;;5095065;28;20212;-84
2022/04/15 11:18:51;;;;;;;7.90;5.17;;;;;;;;;;5094889;28;20208;-84
2022/04/15 11:21:20;;;;;;;4.47;3.87;;;;;;;;;;5094899;28;20192;-83
2022/04/15 11:23:48;;;;;;;4.40;3.70;;;;;;;;;;5094576;28;20188;-84
2022/04/15 11:26:16;;;;;;;4.90;3.73;;;;;;;;;;5094832;28;20242;-84
2022/04/15 11:28:50;;;;;;;4.23;3.87;;;;;;;;;;5095634;28;20200;-84
2022/04/15 11:31:24;;;;;;;4.10;3.80;;;;;;;;;;5094721;28;20258;-84
2022/04/15 11:33:52;;;;;;;4.73;4.20;;;;;;;;;;5094562;28;20754;-84
2022/04/15 11:36:20;;;;;;;8.83;3.90;;;;;;;;;;5094265;28;20282;-84
2022/04/15 11:38:47;;;;;;;3.97;3.67;;;;;;;;;;5094835;28;20216;-84
2022/04/15 11:41:19;;;;;;;5.57;4.00;;;;;;;;;;5094448;28;20196;-84
2022/04/15 11:43:56;;;;;;;6.23;3.47;;;;;;;;;;5094253;28;20743;-84
2022/04/15 11:46:23;;;;;;;4.00;3.63;;;;;;;;;;5094528;28;20217;-84
2022/04/15 11:48:51;;;;;;;4.77;4.20;;;;;;;;;;5094276;28;20291;-84
2022/04/15 11:51:23;;;;;;;7.80;3.90;;;;;;;;;;5094415;28;20196;-84
2022/04/15 11:53:50;;;;;;;4.20;3.43;;;;;;;;;;5094203;28;20291;-84
2022/04/15 11:56:20;;;;;;;4.77;3.67;;;;;;;;;;5094480;28;20571;-84
2022/04/15 11:58:47;;;;;;;5.17;3.73;;;;;;;;;;5094234;28;20196;-84
2022/04/15 12:01:26;;;;;;;3.73;3.03;;;;;;;;;;5093821;28;20196;-84
2022/04/15 12:03:54;;;;;;;5.00;3.83;;;;;;;;;;5094105;28;20615;-84
2022/04/15 12:06:22;;;;;;;4.43;3.47;;;;;;;;;;5093961;28;20287;-84
2022/04/15 12:08:49;;;;;;;3.63;3.33;;;;;;;;;;5094094;28;20196;-83
2022/04/15 12:11:22;;;;;;;5.93;4.73;;;;;;;;;;5094445;28;20200;-84
2022/04/15 12:13:54;;;;;;;5.17;4.10;;;;;;;;;;5093867;28;20208;-84
2022/04/15 12:16:23;;;;;;;10.07;4.17;;;;;;;;;;5092890;28;20193;-84
2022/04/15 12:18:50;;;;;;;9.63;3.90;;;;;;;;;;5093814;28;20195;-84
2022/04/15 12:21:18;;;;;;;4.13;3.73;;;;;;;;;;5093667;28;20287;-84
2022/04/15 12:24:01;;;;;;;6.63;3.40;;;;;;;;;;5093706;28;20199;-84
2022/04/15 12:26:28;;;;;;;6.33;3.67;;;;;;;;;;5091692;28;20203;-84
2022/04/15 12:31:49;;;;;;;4.83;3.70;;;;;;;;;;5093987;28;20175;-84
2022/04/15 12:34:17;;;;;;;4.43;3.07;;;;;;;;;;5093247;28;20220;-84
2022/04/15 12:36:45;;;;;;;4.00;3.03;;;;;;;;;;5093330;28;20289;-84
2022/04/15 12:39:13;;;;;;;3.80;3.27;;;;;;;;;;5093012;28;20246;-84
2022/04/15 12:41:42;;;;;;;7.47;4.10;;;;;;;;;;5093406;28;20199;-84
2022/04/15 12:44:18;;;;;;;4.10;2.80;;;;;;;;;;5093110;28;20679;-84
2022/04/15 12:46:46;;;;;;;6.37;3.43;;;;;;;;;;5093369;28;20196;-84
2022/04/15 12:49:33;;;;;;;7.50;3.63;;;;;;;;;;5092821;28;20197;-84
2022/04/15 12:52:13;;;;;;;3.73;3.37;;;;;;;;;;5093211;28;20534;-84
2022/04/15 12:54:57;;;;;;;5.23;3.50;;;;;;;;;;5092886;28;20295;-84
2022/04/15 12:57:29;;;;;;;5.60;2.70;;;;;;;;;;5093476;28;20200;-83
2022/04/15 12:59:56;;;;;;;7.63;4.13;;;;;;;;;;5092824;28;20196;-84
2022/04/15 13:02:24;;;;;;;4.80;3.00;;;;;;;;;;5093222;28;20235;-84
2022/04/15 13:04:54;;;;;;;3.60;2.97;;;;;;;;;;5092764;28;20245;-83
2022/04/15 13:07:21;;;;;;;3.30;3.00;;;;;;;;;;5092904;28;20287;-84
2022/04/15 13:09:49;;;;;;;3.67;2.90;;;;;;;;;;5092542;28;20287;-84
2022/04/15 13:12:17;;;;;;;4.80;3.03;;;;;;;;;;5092798;28;20291;-84
2022/04/15 13:14:45;;;;;;;4.73;3.03;;;;;;;;;;5092538;28;20227;-84
2022/04/15 13:17:12;;;;;;;4.23;3.60;;;;;;;;;;5093053;28;20635;-84
2022/04/15 13:19:40;;;;;;;12.67;3.70;;;;;;;;;;5092280;28;20293;-84
2022/04/15 13:22:09;;;;;;;4.53;2.83;;;;;;;;;;5092956;28;20228;-84
2022/04/15 13:24:36;;;;;;;3.60;3.03;;;;;;;;;;5092755;28;20433;-84
2022/04/15 13:27:04;;;;;;;2.77;2.57;;;;;;;;;;5092282;28;20208;-84
2022/04/15 13:29:32;;;;;;;3.23;2.93;;;;;;;;;;5092725;28;20601;-84
2022/04/15 13:32:00;;;;;;;6.23;2.87;;;;;;;;;;5092772;28;20192;-84
2022/04/15 13:34:32;;;;;;;3.50;2.70;;;;;;;;;;5092452;28;20351;-84
2022/04/15 13:37:01;;;;;;;3.03;2.50;;;;;;;;;;5092570;28;20266;-84
2022/04/15 13:39:30;;;;;;;3.03;2.50;;;;;;;;;;5092319;28;20195;-83
2022/04/15 13:41:58;;;;;;;5.87;2.93;;;;;;;;;;5092745;28;20649;-84
2022/04/15 13:44:26;;;;;;;4.80;2.70;;;;;;;;;;5092213;28;20217;-82
2022/04/15 13:46:53;;;;;;;2.93;2.73;;;;;;;;;;5092319;28;20203;-82
2022/04/15 13:49:20;;;;;;;7.63;3.07;;;;;;;;;;5092080;28;20311;-82
2022/04/15 13:51:48;;;;;;;3.10;2.40;;;;;;;;;;5092034;28;20200;-81
2022/04/15 13:57:01;;;;;;;2.97;2.57;;;;;;;;;;5092715;28;20187;-81
2022/04/15 13:59:28;;;;;;;2.70;2.40;;;;;;;;;;5092499;28;20200;-82
2022/04/15 14:01:56;;;;;;;5.33;2.50;;;;;;;;;;5091870;28;20193;-82
2022/04/15 14:04:23;;;;;;;4.03;2.50;;;;;;;;;;5091924;28;20196;-82
2022/04/15 14:06:51;;;;;;;6.60;2.80;;;;;;;;;;5092234;28;20196;-82
2022/04/15 14:09:20;;;;;;;3.37;2.40;;;;;;;;;;5091837;28;20554;-82
2022/04/15 14:11:49;;;;;;;3.53;3.23;;;;;;;;;;5092096;28;20560;-82
2022/04/15 14:14:18;;;;;;;3.10;2.40;;;;;;;;;;5091695;28;20256;-82
2022/04/15 14:16:46;;;;;;;2.97;2.60;;;;;;;;;;5092246;28;20577;-82
2022/04/15 14:19:14;;;;;;;2.70;2.50;;;;;;;;;;5091728;28;20201;-82
2022/04/15 14:21:42;;;;;;;3.53;2.83;;;;;;;;;;5091690;28;20199;-82
2022/04/15 14:24:09;;;;;;;2.47;2.20;;;;;;;;;;5091967;28;20203;-82
2022/04/15 14:26:36;;;;;;;2.60;2.37;;;;;;;;;;5091827;28;20673;-82
2022/04/15 14:29:04;;;;;;;2.50;2.30;;;;;;;;;;5091692;28;20683;-82
2022/04/15 14:31:33;;;;;;;4.43;2.53;;;;;;;;;;5091896;28;20206;-82
2022/04/15 14:34:00;;;;;;;3.00;2.67;;;;;;;;;;5091512;28;20216;-81
2022/04/15 14:36:28;;;;;;;3.40;2.23;;;;;;;;;;5091592;28;20234;-82
2022/04/15 14:38:57;;;;;;;4.97;3.37;;;;;;;;;;5092610;28;20184;-82
2022/04/15 14:41:25;;;;;;;6.73;3.00;;;;;;;;;;5095761;28;20205;-82
2022/04/15 14:43:52;;;;;;;5.97;2.77;;;;;;;;;;5095305;28;20200;-82
2022/04/15 14:46:20;;;;;;;5.30;2.20;;;;;;;;;;5095352;28;20199;-82
2022/04/15 14:48:51;;;;;;;4.30;2.23;;;;;;;;;;5095463;28;20314;-81
2022/04/15 14:51:18;;;;;;;3.00;2.50;;;;;;;;;;5095008;28;20200;-82
2022/04/15 14:53:45;;;;;;;8.67;8.00;;;;;;;;;;5095178;28;20314;-84
2022/04/15 14:56:12;;;;;;;22.73;20.27;;;;;;;;;;5095397;28;20238;-82
2022/04/15 14:58:40;;;;;;;6.03;3.43;;;;;;;;;;5095724;28;20196;-83